sensor_id;sensor_type;location;lat;lon;timestamp;pressure;altitude;pressure_sealevel;temperature;humidity
60918;BME280;46792;38.854;-9.384;2023-02-22T00:00:03;99901.03;;;11.65;100.00
60918;BME280;46792;38.854;-9.384;2023-02-22T00:02:11;99898.56;;;11.64;100.00
60918;BME280;46792;38.854;-9.384;2023-02-22T00:04:17;99892.63;;;11.62;100.00
60918;BME280;46792;38.854;-9.384;2023-02-22T00:06:21;99892.88;;;11.60;100.00
60918;BME280;46792;38.854;-9.384;2023-02-22T00:08:26;99900.19;;;11.65;100.00
60918;BME280;46792;38.854;-9.384;2023-02-22T00:10:30;99887.22;;;11.67;100.00
60918;BME280;46792;38.854;-9.384;2023-02-22T00:12:30;99896.72;;;11.75;100.00
60918;BME280;46792;38.854;-9.384;2023-02-22T00:14:31;99894.84;;;11.75;100.00
60918;BME280;46792;38.854;-9.384;2023-02-22T00:16:31;99891.84;;;11.71;100.00
60918;BME280;46792;38.854;-9.384;2023-02-22T00:18:32;99885.59;;;11.66;100.00
60918;BME280;46792;38.854;-9.384;2023-02-22T00:20:32;99891.00;;;11.66;100.00
60918;BME280;46792;38.854;-9.384;2023-02-22T00:22:33;99885.59;;;11.61;100.00
60918;BME280;46792;38.854;-9.384;2023-02-22T00:24:34;99880.19;;;11.61;100.00
60918;BME280;46792;38.854;-9.384;2023-02-22T00:26:35;99885.03;;;11.64;100.00
60918;BME280;46792;38.854;-9.384;2023-02-22T00:28:36;99875.09;;;11.69;100.00
60918;BME280;46792;38.854;-9.384;2023-02-22T00:30:37;99881.34;;;11.75;100.00
60918;BME280;46792;38.854;-9.384;2023-02-22T00:37:36;99869.16;;;11.78;100.00
60918;BME280;46792;38.854;-9.384;2023-02-22T00:39:55;99873.22;;;11.75;100.00
60918;BME280;46792;38.854;-9.384;2023-02-22T00:41:56;99875.94;;;11.75;100.00
60918;BME280;46792;38.854;-9.384;2023-02-22T00:43:57;99866.19;;;11.74;100.00
60918;BME280;46792;38.854;-9.384;2023-02-22T00:45:58;99874.31;;;11.74;100.00
60918;BME280;46792;38.854;-9.384;2023-02-22T00:47:59;99879.19;;;11.77;100.00
60918;BME280;46792;38.854;-9.384;2023-02-22T00:50:00;99881.59;;;11.74;100.00
60918;BME280;46792;38.854;-9.384;2023-02-22T00:52:01;99878.06;;;11.73;100.00
60918;BME280;46792;38.854;-9.384;2023-02-22T00:54:02;99873.78;;;11.77;100.00
60918;BME280;46792;38.854;-9.384;2023-02-22T00:56:03;99879.72;;;11.79;100.00
60918;BME280;46792;38.854;-9.384;2023-02-22T00:58:05;99875.94;;;11.80;100.00
60918;BME280;46792;38.854;-9.384;2023-02-22T01:00:08;99871.88;;;11.78;100.00
60918;BME280;46792;38.854;-9.384;2023-02-22T01:02:13;99873.22;;;11.75;100.00
60918;BME280;46792;38.854;-9.384;2023-02-22T01:04:14;99876.19;;;11.74;100.00
60918;BME280;46792;38.854;-9.384;2023-02-22T01:06:15;99873.75;;;11.72;100.00
60918;BME280;46792;38.854;-9.384;2023-02-22T01:08:16;99865.91;;;11.70;100.00
60918;BME280;46792;38.854;-9.384;2023-02-22T01:10:19;99867.22;;;11.68;100.00
60918;BME280;46792;38.854;-9.384;2023-02-22T01:12:23;99856.94;;;11.65;100.00
60918;BME280;46792;38.854;-9.384;2023-02-22T01:17:24;99857.47;;;11.62;100.00
60918;BME280;46792;38.854;-9.384;2023-02-22T01:19:24;99854.22;;;11.65;100.00
60918;BME280;46792;38.854;-9.384;2023-02-22T01:21:25;99845.84;;;11.61;100.00
60918;BME280;46792;38.854;-9.384;2023-02-22T01:23:27;99855.31;;;11.64;100.00
60918;BME280;46792;38.854;-9.384;2023-02-22T01:25:31;99854.78;;;11.67;100.00
60918;BME280;46792;38.854;-9.384;2023-02-22T01:27:33;99858.28;;;11.62;100.00
60918;BME280;46792;38.854;-9.384;2023-02-22T01:29:34;99859.34;;;11.61;100.00
60918;BME280;46792;38.854;-9.384;2023-02-22T01:31:34;99859.88;;;11.53;100.00
60918;BME280;46792;38.854;-9.384;2023-02-22T01:33:35;99863.13;;;11.55;100.00
60918;BME280;46792;38.854;-9.384;2023-02-22T01:35:37;99854.97;;;11.50;100.00
60918;BME280;46792;38.854;-9.384;2023-02-22T01:37:40;99865.28;;;11.53;100.00
60918;BME280;46792;38.854;-9.384;2023-02-22T01:39:41;99863.34;;;11.48;100.00
60918;BME280;46792;38.854;-9.384;2023-02-22T01:41:43;99867.66;;;11.49;100.00
60918;BME280;46792;38.854;-9.384;2023-02-22T01:43:44;99868.75;;;11.48;100.00
60918;BME280;46792;38.854;-9.384;2023-02-22T01:45:49;99866.88;;;11.49;100.00
60918;BME280;46792;38.854;-9.384;2023-02-22T01:47:53;99870.09;;;11.46;100.00
60918;BME280;46792;38.854;-9.384;2023-02-22T01:49:54;99865.47;;;11.41;100.00
60918;BME280;46792;38.854;-9.384;2023-02-22T01:51:59;99869.53;;;11.38;100.00
60918;BME280;46792;38.854;-9.384;2023-02-22T01:56:08;99880.81;;;11.30;100.00
60918;BME280;46792;38.854;-9.384;2023-02-22T01:58:10;99878.38;;;11.29;100.00
60918;BME280;46792;38.854;-9.384;2023-02-22T02:00:14;99873.72;;;11.24;100.00
60918;BME280;46792;38.854;-9.384;2023-02-22T02:02:17;99880.75;;;11.25;100.00
60918;BME280;46792;38.854;-9.384;2023-02-22T02:04:20;99877.81;;;11.26;100.00
60918;BME280;46792;38.854;-9.384;2023-02-22T02:06:31;99880.53;;;11.26;100.00
60918;BME280;46792;38.854;-9.384;2023-02-22T02:08:41;99877.81;;;11.26;100.00
60918;BME280;46792;38.854;-9.384;2023-02-22T02:10:48;99870.78;;;11.25;100.00
60918;BME280;46792;38.854;-9.384;2023-02-22T02:12:52;99875.13;;;11.26;100.00
60918;BME280;46792;38.854;-9.384;2023-02-22T02:15:31;99860.75;;;11.21;100.00
60918;BME280;46792;38.854;-9.384;2023-02-22T02:17:32;99869.16;;;11.24;100.00
60918;BME280;46792;38.854;-9.384;2023-02-22T02:20:04;99850.72;;;11.16;100.00
60918;BME280;46792;38.854;-9.384;2023-02-22T02:27:09;99859.94;;;11.20;100.00
60918;BME280;46792;38.854;-9.384;2023-02-22T02:34:33;99857.75;;;11.17;100.00
60918;BME280;46792;38.854;-9.384;2023-02-22T02:36:46;99851.50;;;11.11;100.00
60918;BME280;46792;38.854;-9.384;2023-02-22T02:39:28;99855.28;;;11.10;100.00
60918;BME280;46792;38.854;-9.384;2023-02-22T02:41:38;99858.53;;;11.13;100.00
60918;BME280;46792;38.854;-9.384;2023-02-22T02:43:52;99862.56;;;11.10;100.00
60918;BME280;46792;38.854;-9.384;2023-02-22T02:47:58;99854.44;;;11.05;100.00
60918;BME280;46792;38.854;-9.384;2023-02-22T02:50:08;99862.53;;;11.05;100.00
60918;BME280;46792;38.854;-9.384;2023-02-22T02:52:11;99848.72;;;11.01;100.00
60918;BME280;46792;38.854;-9.384;2023-02-22T02:54:13;99838.50;;;11.03;100.00
60918;BME280;46792;38.854;-9.384;2023-02-22T02:56:14;99846.03;;;11.01;100.00
60918;BME280;46792;38.854;-9.384;2023-02-22T02:58:18;99846.81;;;10.97;100.00
60918;BME280;46792;38.854;-9.384;2023-02-22T03:00:23;99844.34;;;10.95;100.00
60918;BME280;46792;38.854;-9.384;2023-02-22T03:02:47;99843.00;;;10.92;100.00
60918;BME280;46792;38.854;-9.384;2023-02-22T03:05:06;99827.59;;;10.93;100.00
60918;BME280;46792;38.854;-9.384;2023-02-22T03:07:30;99832.16;;;10.87;100.00
60918;BME280;46792;38.854;-9.384;2023-02-22T03:18:31;99825.31;;;10.74;100.00
60918;BME280;46792;38.854;-9.384;2023-02-22T03:22:57;99816.91;;;10.71;100.00
60918;BME280;46792;38.854;-9.384;2023-02-22T03:25:11;99809.31;;;10.68;100.00
60918;BME280;46792;38.854;-9.384;2023-02-22T03:29:28;99813.63;;;10.69;100.00
60918;BME280;46792;38.854;-9.384;2023-02-22T03:31:40;99813.13;;;10.72;100.00
60918;BME280;46792;38.854;-9.384;2023-02-22T03:34:05;99808.84;;;10.76;100.00
60918;BME280;46792;38.854;-9.384;2023-02-22T03:36:30;99812.34;;;10.76;100.00
60918;BME280;46792;38.854;-9.384;2023-02-22T03:38:35;99815.88;;;10.77;100.00
60918;BME280;46792;38.854;-9.384;2023-02-22T03:40:41;99813.16;;;10.77;100.00
60918;BME280;46792;38.854;-9.384;2023-02-22T03:43:08;99807.25;;;10.80;100.00
60918;BME280;46792;38.854;-9.384;2023-02-22T03:45:29;99810.25;;;10.84;100.00
60918;BME280;46792;38.854;-9.384;2023-02-22T03:47:36;99811.66;;;10.91;100.00
60918;BME280;46792;38.854;-9.384;2023-02-22T03:49:56;99800.06;;;10.91;100.00
60918;BME280;46792;38.854;-9.384;2023-02-22T03:52:00;99806.47;;;10.85;100.00
60918;BME280;46792;38.854;-9.384;2023-02-22T03:54:03;99806.75;;;10.88;100.00
60918;BME280;46792;38.854;-9.384;2023-02-22T03:56:13;99804.56;;;10.80;100.00
60918;BME280;46792;38.854;-9.384;2023-02-22T03:58:21;99803.50;;;10.81;100.00
60918;BME280;46792;38.854;-9.384;2023-02-22T04:00:25;99805.63;;;10.79;100.00
60918;BME280;46792;38.854;-9.384;2023-02-22T04:02:25;99801.31;;;10.78;100.00
60918;BME280;46792;38.854;-9.384;2023-02-22T04:04:29;99807.78;;;10.77;100.00
60918;BME280;46792;38.854;-9.384;2023-02-22T04:06:30;99801.31;;;10.78;100.00
60918;BME280;46792;38.854;-9.384;2023-02-22T04:08:32;99802.94;;;10.79;100.00
60918;BME280;46792;38.854;-9.384;2023-02-22T04:10:33;99801.31;;;10.83;100.00
60918;BME280;46792;38.854;-9.384;2023-02-22T04:12:34;99805.13;;;10.82;100.00
60918;BME280;46792;38.854;-9.384;2023-02-22T04:14:37;99802.41;;;10.82;100.00
60918;BME280;46792;38.854;-9.384;2023-02-22T04:16:56;99804.03;;;10.83;100.00
60918;BME280;46792;38.854;-9.384;2023-02-22T04:18:57;99801.88;;;10.85;100.00
60918;BME280;46792;38.854;-9.384;2023-02-22T04:20:58;99800.53;;;10.83;100.00
60918;BME280;46792;38.854;-9.384;2023-02-22T04:23:09;99803.50;;;10.86;100.00
60918;BME280;46792;38.854;-9.384;2023-02-22T04:25:13;99795.97;;;10.88;100.00
60918;BME280;46792;38.854;-9.384;2023-02-22T04:27:14;99798.66;;;10.88;100.00
60918;BME280;46792;38.854;-9.384;2023-02-22T04:29:18;99800.91;;;10.97;100.00
60918;BME280;46792;38.854;-9.384;2023-02-22T04:31:18;99799.28;;;11.01;100.00
60918;BME280;46792;38.854;-9.384;2023-02-22T04:33:19;99796.34;;;11.02;100.00
60918;BME280;46792;38.854;-9.384;2023-02-22T04:35:20;99797.41;;;11.01;100.00
60918;BME280;46792;38.854;-9.384;2023-02-22T04:37:21;99799.84;;;11.03;100.00
60918;BME280;46792;38.854;-9.384;2023-02-22T04:39:22;99796.91;;;11.04;100.00
60918;BME280;46792;38.854;-9.384;2023-02-22T04:41:24;99802.84;;;11.06;100.00
60918;BME280;46792;38.854;-9.384;2023-02-22T04:43:25;99797.19;;;11.08;100.00
60918;BME280;46792;38.854;-9.384;2023-02-22T04:45:33;99799.34;;;11.11;100.00
60918;BME280;46792;38.854;-9.384;2023-02-22T04:47:37;99795.59;;;11.12;100.00
60918;BME280;46792;38.854;-9.384;2023-02-22T04:49:38;99806.69;;;11.16;100.00
60918;BME280;46792;38.854;-9.384;2023-02-22T04:51:39;99809.09;;;11.17;100.00
60918;BME280;46792;38.854;-9.384;2023-02-22T04:53:42;99795.59;;;11.12;100.00
60918;BME280;46792;38.854;-9.384;2023-02-22T04:55:43;99800.19;;;11.17;100.00
60918;BME280;46792;38.854;-9.384;2023-02-22T04:57:44;99807.22;;;11.18;100.00
60918;BME280;46792;38.854;-9.384;2023-02-22T04:59:46;99792.91;;;11.17;100.00
60918;BME280;46792;38.854;-9.384;2023-02-22T05:01:48;99795.34;;;11.19;100.00
60918;BME280;46792;38.854;-9.384;2023-02-22T05:03:48;99794.84;;;11.22;100.00
60918;BME280;46792;38.854;-9.384;2023-02-22T05:05:50;99798.06;;;11.24;100.00
60918;BME280;46792;38.854;-9.384;2023-02-22T05:07:51;99809.44;;;11.26;100.00
60918;BME280;46792;38.854;-9.384;2023-02-22T05:09:52;99797.53;;;11.27;100.00
60918;BME280;46792;38.854;-9.384;2023-02-22T05:11:53;99795.91;;;11.26;100.00
60918;BME280;46792;38.854;-9.384;2023-02-22T05:13:53;99798.38;;;11.28;100.00
60918;BME280;46792;38.854;-9.384;2023-02-22T05:15:54;99797.81;;;11.25;100.00
60918;BME280;46792;38.854;-9.384;2023-02-22T05:17:54;99799.69;;;11.25;100.00
60918;BME280;46792;38.854;-9.384;2023-02-22T05:19:55;99801.88;;;11.23;100.00
60918;BME280;46792;38.854;-9.384;2023-02-22T05:21:56;99806.44;;;11.22;100.00
60918;BME280;46792;38.854;-9.384;2023-02-22T05:23:56;99796.19;;;11.24;100.00
60918;BME280;46792;38.854;-9.384;2023-02-22T05:25:58;99800.53;;;11.25;100.00
60918;BME280;46792;38.854;-9.384;2023-02-22T05:28:17;99796.47;;;11.23;100.00
60918;BME280;46792;38.854;-9.384;2023-02-22T05:30:23;99809.97;;;11.23;100.00
60918;BME280;46792;38.854;-9.384;2023-02-22T05:32:43;99806.97;;;11.19;100.00
60918;BME280;46792;38.854;-9.384;2023-02-22T05:34:43;99813.16;;;11.15;100.00
60918;BME280;46792;38.854;-9.384;2023-02-22T05:36:45;99813.44;;;11.13;100.00
60918;BME280;46792;38.854;-9.384;2023-02-22T05:38:45;99809.34;;;11.10;100.00
60918;BME280;46792;38.854;-9.384;2023-02-22T05:40:46;99815.53;;;11.06;100.00
60918;BME280;46792;38.854;-9.384;2023-02-22T05:42:47;99820.94;;;11.06;100.00
60918;BME280;46792;38.854;-9.384;2023-02-22T05:44:48;99825.00;;;11.08;100.00
60918;BME280;46792;38.854;-9.384;2023-02-22T05:46:49;99824.53;;;11.17;100.00
60918;BME280;46792;38.854;-9.384;2023-02-22T05:48:52;99822.09;;;11.20;100.00
60918;BME280;46792;38.854;-9.384;2023-02-22T05:51:12;99821.31;;;11.25;100.00
60918;BME280;46792;38.854;-9.384;2023-02-22T05:53:13;99824.88;;;11.31;100.00
60918;BME280;46792;38.854;-9.384;2023-02-22T05:55:15;99829.19;;;11.32;100.00
60918;BME280;46792;38.854;-9.384;2023-02-22T05:57:17;99827.31;;;11.32;100.00
60918;BME280;46792;38.854;-9.384;2023-02-22T05:59:17;99830.28;;;11.31;100.00
60918;BME280;46792;38.854;-9.384;2023-02-22T06:01:18;99834.59;;;11.32;100.00
60918;BME280;46792;38.854;-9.384;2023-02-22T06:03:19;99833.50;;;11.33;100.00
60918;BME280;46792;38.854;-9.384;2023-02-22T06:05:20;99834.06;;;11.30;100.00
60918;BME280;46792;38.854;-9.384;2023-02-22T06:07:20;99827.28;;;11.27;100.00
60918;BME280;46792;38.854;-9.384;2023-02-22T06:09:22;99837.28;;;11.26;100.00
60918;BME280;46792;38.854;-9.384;2023-02-22T06:11:22;99838.59;;;11.24;100.00
60918;BME280;46792;38.854;-9.384;2023-02-22T06:13:23;99832.66;;;11.22;100.00
60918;BME280;46792;38.854;-9.384;2023-02-22T06:15:24;99836.72;;;11.24;100.00
60918;BME280;46792;38.854;-9.384;2023-02-22T06:17:26;99830.50;;;11.24;100.00
60918;BME280;46792;38.854;-9.384;2023-02-22T06:21:50;99828.34;;;11.21;100.00
60918;BME280;46792;38.854;-9.384;2023-02-22T06:23:51;99834.81;;;11.25;100.00
60918;BME280;46792;38.854;-9.384;2023-02-22T06:25:52;99830.25;;;11.25;100.00
60918;BME280;46792;38.854;-9.384;2023-02-22T06:27:52;99833.22;;;11.29;100.00
60918;BME280;46792;38.854;-9.384;2023-02-22T06:29:53;99830.81;;;11.28;100.00
60918;BME280;46792;38.854;-9.384;2023-02-22T06:31:54;99829.97;;;11.27;100.00
60918;BME280;46792;38.854;-9.384;2023-02-22T06:33:54;99830.00;;;11.32;100.00
60918;BME280;46792;38.854;-9.384;2023-02-22T06:36:14;99831.88;;;11.26;100.00
60918;BME280;46792;38.854;-9.384;2023-02-22T06:38:25;99835.13;;;11.29;100.00
60918;BME280;46792;38.854;-9.384;2023-02-22T06:40:26;99831.59;;;11.28;100.00
60918;BME280;46792;38.854;-9.384;2023-02-22T06:42:30;99835.94;;;11.29;100.00
60918;BME280;46792;38.854;-9.384;2023-02-22T06:44:30;99826.72;;;11.25;100.00
60918;BME280;46792;38.854;-9.384;2023-02-22T06:46:31;99829.72;;;11.29;100.00
60918;BME280;46792;38.854;-9.384;2023-02-22T06:48:32;99832.69;;;11.27;100.00
60918;BME280;46792;38.854;-9.384;2023-02-22T06:50:32;99831.88;;;11.26;100.00
60918;BME280;46792;38.854;-9.384;2023-02-22T06:52:52;99825.31;;;11.17;100.00
60918;BME280;46792;38.854;-9.384;2023-02-22T06:55:11;99831.84;;;11.21;100.00
60918;BME280;46792;38.854;-9.384;2023-02-22T06:57:15;99839.16;;;11.21;100.00
60918;BME280;46792;38.854;-9.384;2023-02-22T06:59:17;99843.16;;;11.18;100.00
60918;BME280;46792;38.854;-9.384;2023-02-22T07:01:17;99841.53;;;11.17;100.00
60918;BME280;46792;38.854;-9.384;2023-02-22T07:05:37;99844.84;;;11.24;100.00
60918;BME280;46792;38.854;-9.384;2023-02-22T07:07:38;99842.09;;;11.19;100.00
60918;BME280;46792;38.854;-9.384;2023-02-22T07:09:41;99842.09;;;11.19;100.00
60918;BME280;46792;38.854;-9.384;2023-02-22T07:11:45;99842.59;;;11.16;100.00
60918;BME280;46792;38.854;-9.384;2023-02-22T07:13:46;99843.94;;;11.14;100.00
60918;BME280;46792;38.854;-9.384;2023-02-22T07:15:46;99842.03;;;11.09;100.00
60918;BME280;46792;38.854;-9.384;2023-02-22T07:17:47;99841.53;;;11.12;100.00
60918;BME280;46792;38.854;-9.384;2023-02-22T07:19:47;99851.75;;;11.10;100.00
60918;BME280;46792;38.854;-9.384;2023-02-22T07:21:48;99851.75;;;11.10;100.00
60918;BME280;46792;38.854;-9.384;2023-02-22T07:23:53;99863.66;;;11.09;100.00
60918;BME280;46792;38.854;-9.384;2023-02-22T07:25:54;99856.34;;;11.09;100.00
60918;BME280;46792;38.854;-9.384;2023-02-22T07:27:55;99859.31;;;11.08;100.00
60918;BME280;46792;38.854;-9.384;2023-02-22T07:29:55;99862.31;;;11.11;100.00
60918;BME280;46792;38.854;-9.384;2023-02-22T07:31:56;99862.56;;;11.10;100.00
60918;BME280;46792;38.854;-9.384;2023-02-22T07:33:57;99864.75;;;11.13;100.00
60918;BME280;46792;38.854;-9.384;2023-02-22T07:35:57;99862.59;;;11.15;100.00
60918;BME280;46792;38.854;-9.384;2023-02-22T07:37:58;99861.22;;;11.13;100.00
60918;BME280;46792;38.854;-9.384;2023-02-22T07:40:18;99858.81;;;11.11;100.00
60918;BME280;46792;38.854;-9.384;2023-02-22T07:42:18;99863.69;;;11.14;100.00
60918;BME280;46792;38.854;-9.384;2023-02-22T07:44:19;99872.88;;;11.13;100.00
60918;BME280;46792;38.854;-9.384;2023-02-22T07:46:20;99867.47;;;11.13;100.00
60918;BME280;46792;38.854;-9.384;2023-02-22T07:48:22;99865.84;;;11.12;100.00
60918;BME280;46792;38.854;-9.384;2023-02-22T07:50:25;99869.09;;;11.14;100.00
60918;BME280;46792;38.854;-9.384;2023-02-22T07:52:26;99866.13;;;11.16;100.00
60918;BME280;46792;38.854;-9.384;2023-02-22T07:54:26;99868.03;;;11.20;100.00
60918;BME280;46792;38.854;-9.384;2023-02-22T07:56:47;99867.81;;;11.27;100.00
60918;BME280;46792;38.854;-9.384;2023-02-22T07:59:05;99871.34;;;11.33;100.00
60918;BME280;46792;38.854;-9.384;2023-02-22T08:01:06;99872.19;;;11.33;100.00
60918;BME280;46792;38.854;-9.384;2023-02-22T08:08:07;99896.34;;;11.50;100.00
60918;BME280;46792;38.854;-9.384;2023-02-22T08:10:09;99894.75;;;11.54;100.00
60918;BME280;46792;38.854;-9.384;2023-02-22T08:12:09;99895.81;;;11.53;100.00
60918;BME280;46792;38.854;-9.384;2023-02-22T08:14:10;99892.03;;;11.54;100.00
60918;BME280;46792;38.854;-9.384;2023-02-22T08:16:10;99899.13;;;11.61;100.00
60918;BME280;46792;38.854;-9.384;2023-02-22T08:18:16;99901.28;;;11.64;100.00
60918;BME280;46792;38.854;-9.384;2023-02-22T08:20:17;99900.75;;;11.67;100.00
60918;BME280;46792;38.854;-9.384;2023-02-22T08:22:18;99901.03;;;11.65;100.00
60918;BME280;46792;38.854;-9.384;2023-02-22T08:24:19;99909.69;;;11.67;100.00
60918;BME280;46792;38.854;-9.384;2023-02-22T08:26:20;99894.50;;;11.61;100.00
60918;BME280;46792;38.854;-9.384;2023-02-22T08:28:40;99908.91;;;11.72;100.00
60918;BME280;46792;38.854;-9.384;2023-02-22T08:30:41;99912.41;;;11.72;100.00
60918;BME280;46792;38.854;-9.384;2023-02-22T08:32:45;99912.41;;;11.72;100.00
60918;BME280;46792;38.854;-9.384;2023-02-22T08:34:46;99919.44;;;11.74;100.00
60918;BME280;46792;38.854;-9.384;2023-02-22T08:36:48;99925.69;;;11.74;100.00
60918;BME280;46792;38.854;-9.384;2023-02-22T08:38:49;99927.88;;;11.77;100.00
60918;BME280;46792;38.854;-9.384;2023-02-22T08:40:50;99921.38;;;11.78;100.00
60918;BME280;46792;38.854;-9.384;2023-02-22T08:42:51;99923.00;;;11.79;100.00
60918;BME280;46792;38.854;-9.384;2023-02-22T08:44:51;99925.72;;;11.84;100.00
60918;BME280;46792;38.854;-9.384;2023-02-22T08:46:52;99924.41;;;11.87;100.00
60918;BME280;46792;38.854;-9.384;2023-02-22T08:48:52;99918.16;;;11.86;100.00
60918;BME280;46792;38.854;-9.384;2023-02-22T08:50:53;99924.41;;;11.87;100.00
60918;BME280;46792;38.854;-9.384;2023-02-22T08:52:56;99930.34;;;11.89;100.00
60918;BME280;46792;38.854;-9.384;2023-02-22T08:54:58;99929.28;;;11.90;100.00
60918;BME280;46792;38.854;-9.384;2023-02-22T08:56:58;99932.81;;;11.91;100.00
60918;BME280;46792;38.854;-9.384;2023-02-22T08:58:59;99928.19;;;11.91;100.00
60918;BME280;46792;38.854;-9.384;2023-02-22T09:00:59;99927.41;;;11.96;100.00
60918;BME280;46792;38.854;-9.384;2023-02-22T09:03:08;99932.81;;;11.96;100.00
60918;BME280;46792;38.854;-9.384;2023-02-22T09:05:10;99928.22;;;11.96;100.00
60918;BME280;46792;38.854;-9.384;2023-02-22T09:07:11;99936.06;;;11.98;100.00
60918;BME280;46792;38.854;-9.384;2023-02-22T09:09:11;99927.47;;;12.01;100.00
60918;BME280;46792;38.854;-9.384;2023-02-22T09:11:12;99937.75;;;12.04;100.00
60918;BME280;46792;38.854;-9.384;2023-02-22T09:13:13;99930.16;;;12.01;100.00
60918;BME280;46792;38.854;-9.384;2023-02-22T09:15:14;99933.38;;;11.98;100.00
60918;BME280;46792;38.854;-9.384;2023-02-22T09:17:14;99933.94;;;12.00;100.00
60918;BME280;46792;38.854;-9.384;2023-02-22T09:19:15;99938.03;;;12.02;100.00
60918;BME280;46792;38.854;-9.384;2023-02-22T09:21:15;99931.78;;;12.02;100.00
60918;BME280;46792;38.854;-9.384;2023-02-22T09:23:16;99935.56;;;12.01;100.00
60918;BME280;46792;38.854;-9.384;2023-02-22T09:25:17;99935.84;;;12.05;100.00
60918;BME280;46792;38.854;-9.384;2023-02-22T09:27:21;99939.13;;;12.07;100.00
60918;BME280;46792;38.854;-9.384;2023-02-22T09:29:24;99939.94;;;12.07;100.00
60918;BME280;46792;38.854;-9.384;2023-02-22T09:31:26;99940.50;;;12.09;100.00
60918;BME280;46792;38.854;-9.384;2023-02-22T09:33:26;99931.31;;;12.10;100.00
60918;BME280;46792;38.854;-9.384;2023-02-22T09:35:27;99934.53;;;12.12;100.00
60918;BME280;46792;38.854;-9.384;2023-02-22T09:37:28;99938.63;;;12.15;100.00
60918;BME280;46792;38.854;-9.384;2023-02-22T09:39:29;99937.53;;;12.16;100.00
60918;BME280;46792;38.854;-9.384;2023-02-22T09:41:35;99934.28;;;12.14;100.00
60918;BME280;46792;38.854;-9.384;2023-02-22T09:43:49;99946.44;;;12.11;100.00
60918;BME280;46792;38.854;-9.384;2023-02-22T09:48:18;99945.94;;;12.20;100.00
60918;BME280;46792;38.854;-9.384;2023-02-22T09:50:32;99934.34;;;12.29;100.00
60918;BME280;46792;38.854;-9.384;2023-02-22T09:52:39;99935.41;;;12.23;100.00
60918;BME280;46792;38.854;-9.384;2023-02-22T09:54:56;99941.59;;;12.19;100.00
60918;BME280;46792;38.854;-9.384;2023-02-22T09:57:11;99934.06;;;12.31;100.00
60918;BME280;46792;38.854;-9.384;2023-02-22T09:59:21;99933.25;;;12.36;100.00
60918;BME280;46792;38.854;-9.384;2023-02-22T10:03:34;99929.50;;;12.42;100.00
60918;BME280;46792;38.854;-9.384;2023-02-22T10:05:38;99928.16;;;12.50;100.00
60918;BME280;46792;38.854;-9.384;2023-02-22T10:08:11;99923.31;;;12.62;100.00
60918;BME280;46792;38.854;-9.384;2023-02-22T10:10:22;99930.94;;;12.70;100.00
60918;BME280;46792;38.854;-9.384;2023-02-22T10:12:41;99933.38;;;12.77;100.00
60918;BME280;46792;38.854;-9.384;2023-02-22T10:15:27;99931.47;;;12.83;100.00
60918;BME280;46792;38.854;-9.384;2023-02-22T10:26:34;99927.97;;;12.92;100.00
60918;BME280;46792;38.854;-9.384;2023-02-22T10:30:56;99928.50;;;13.05;100.00
60918;BME280;46792;38.854;-9.384;2023-02-22T10:35:17;99929.59;;;13.14;100.00
60918;BME280;46792;38.854;-9.384;2023-02-22T10:37:29;99926.88;;;13.19;100.00
60918;BME280;46792;38.854;-9.384;2023-02-22T10:39:34;99919.56;;;13.20;100.00
60918;BME280;46792;38.854;-9.384;2023-02-22T10:41:41;99919.84;;;13.23;100.00
60918;BME280;46792;38.854;-9.384;2023-02-22T10:43:45;99921.47;;;13.30;100.00
60918;BME280;46792;38.854;-9.384;2023-02-22T10:45:45;99913.59;;;13.38;100.00
60918;BME280;46792;38.854;-9.384;2023-02-22T10:47:46;99908.97;;;13.49;100.00
60918;BME280;46792;38.854;-9.384;2023-02-22T10:49:55;99910.31;;;13.67;100.00
60918;BME280;46792;38.854;-9.384;2023-02-22T10:51:59;99917.84;;;13.81;100.00
60918;BME280;46792;38.854;-9.384;2023-02-22T10:58:16;99923.16;;;14.17;94.88
60918;BME280;46792;38.854;-9.384;2023-02-22T11:00:27;99910.59;;;14.26;94.56
60918;BME280;46792;38.854;-9.384;2023-02-22T11:02:31;99922.53;;;14.30;93.83
60918;BME280;46792;38.854;-9.384;2023-02-22T11:04:56;99927.66;;;14.37;92.03
60918;BME280;46792;38.854;-9.384;2023-02-22T11:07:31;99919.81;;;14.36;87.97
60918;BME280;46792;38.854;-9.384;2023-02-22T11:09:46;99921.78;;;14.20;84.68
60918;BME280;46792;38.854;-9.384;2023-02-22T11:12:09;99917.97;;;14.15;82.64
60918;BME280;46792;38.854;-9.384;2023-02-22T11:14:12;99917.56;;;13.93;83.96
60918;BME280;46792;38.854;-9.384;2023-02-22T11:16:18;99921.06;;;13.88;86.58
60918;BME280;46792;38.854;-9.384;2023-02-22T11:18:37;99930.09;;;13.73;89.43
60918;BME280;46792;38.854;-9.384;2023-02-22T11:20:38;99922.78;;;13.63;89.98
60918;BME280;46792;38.854;-9.384;2023-02-22T11:22:40;99925.78;;;13.51;90.73
60918;BME280;46792;38.854;-9.384;2023-02-22T11:24:54;99919.03;;;13.44;90.29
60918;BME280;46792;38.854;-9.384;2023-02-22T11:27:08;99932.81;;;13.37;93.32
60918;BME280;46792;38.854;-9.384;2023-02-22T11:29:16;99940.16;;;13.31;93.88
60918;BME280;46792;38.854;-9.384;2023-02-22T11:31:21;99929.84;;;13.28;95.47
60918;BME280;46792;38.854;-9.384;2023-02-22T11:33:24;99938.81;;;13.18;97.59
60918;BME280;46792;38.854;-9.384;2023-02-22T11:37:30;99929.03;;;13.17;99.82
60918;BME280;46792;38.854;-9.384;2023-02-22T11:39:31;99935.81;;;13.09;100.00
60918;BME280;46792;38.854;-9.384;2023-02-22T11:41:33;99933.13;;;13.20;100.00
60918;BME280;46792;38.854;-9.384;2023-02-22T11:43:34;99935.56;;;13.21;100.00
60918;BME280;46792;38.854;-9.384;2023-02-22T11:45:35;99929.88;;;13.23;100.00
60918;BME280;46792;38.854;-9.384;2023-02-22T11:49:49;99930.94;;;13.27;100.00
60918;BME280;46792;38.854;-9.384;2023-02-22T11:54:49;99926.59;;;13.42;100.00
60918;BME280;46792;38.854;-9.384;2023-02-22T11:59:15;99926.06;;;13.39;100.00
60918;BME280;46792;38.854;-9.384;2023-02-22T12:06:01;99919.03;;;13.13;100.00